Latest Coastal Weather Observations for Broome Port

IDW60701

Issued at 11:41 pm WST Sunday 1 May 2016 (issued every 10 minutes, with the page automatically refreshed every 10 minutes)

About coastal observations | Map of coastal stations | Coastal observations for WA | Marine services | Other Formats
Station Details ID: 003102 Name: BROOME NTC AWS Lat: -18.00 Lon: 122.22 Height: 0.0 m
Data from the previous 72 hours. | See also: Recent months for locations in Western Australia
Date/Time
WST
Temp

°C
Wind Pressure Rain
since 9am
mm
Weather Cloud Vis
km
Sea
Height
m
Swell
Dir
 
Speed
knots
Gust
knots
hPa Trend Height
m
Period
s
Dir
01/11:30pm 29.7 SW 8 9 1010.2 - - - - - - - - -
01/11:00pm 29.7 WSW 8 10 1010.3 - - - - - - - - -
01/10:30pm 29.8 WSW 8 9 1010.4 - - - - - - - - -
01/10:00pm 29.9 WSW 9 10 1010.5 - - - - - - - - -
01/09:30pm 29.8 W 6 9 1010.6 - - - - - - - - -
01/09:00pm 29.7 W 7 10 1010.7 - - - - - - - - -
01/08:30pm 29.9 W 9 12 1010.5 - - - - - - - - -
01/08:00pm 29.9 WSW 13 16 1010.4 - - - - - - - - -
01/07:30pm 29.8 WSW 13 17 1010.1 - - - - - - - - -
01/07:00pm 29.8 W 14 17 1009.8 - - - - - - - - -
01/06:30pm 29.8 W 15 18 1009.5 - - - - - - - - -
01/06:00pm 29.8 W 14 18 1009.3 - - - - - - - - -
01/05:30pm 29.7 W 15 19 1009.1 - - - - - - - - -
01/05:00pm 29.8 W 15 19 1008.9 - - - - - - - - -
01/04:30pm 29.9 WNW 15 19 1008.6 - - - - - - - - -
01/04:00pm 29.9 WNW 16 19 1008.5 - - - - - - - - -
01/03:30pm 29.8 WNW 17 20 1008.4 - - - - - - - - -
01/03:00pm 30.0 WNW 16 19 1008.4 - - - - - - - - -
01/02:30pm 30.0 WNW 17 21 1008.4 - - - - - - - - -
01/02:00pm 30.2 W 15 19 1008.5 - - - - - - - - -
01/01:30pm 30.0 W 16 20 1008.9 - - - - - - - - -
01/01:00pm 30.0 W 15 19 1009.2 - - - - - - - - -
01/12:30pm 29.5 WNW 15 18 1009.6 - - - - - - - - -
01/12:00pm 29.5 W 15 17 1010.1 - - - - - - - - -
01/11:30am 29.3 WNW 12 15 1010.7 - - - - - - - - -
01/11:00am 29.3 W 10 13 1011.2 - - - - - - - - -
01/10:30am 29.1 W 9 12 1011.8 - - - - - - - - -
01/10:00am 28.8 WSW 8 10 1012.1 - - - - - - - - -
01/09:30am 28.1 SW 11 13 1012.3 - - - - - - - - -
01/09:00am 27.8 SW 14 16 1012.3 - - - - - - - - -
01/08:30am 27.5 SW 12 14 1012.1 - - - - - - - - -
01/08:00am 27.5 SW 13 15 1012.2 - - - - - - - - -
01/07:30am 27.4 SW 12 14 1012.0 - - - - - - - - -
01/07:00am 27.3 SW 12 14 1012.0 - - - - - - - - -
01/06:30am 27.0 SSW 12 14 1011.6 - - - - - - - - -
01/06:00am 26.9 SSW 12 14 1011.4 - - - - - - - - -
01/05:30am 26.8 SSW 13 15 1011.2 - - - - - - - - -
01/05:00am 27.4 SSW 13 15 1011.0 - - - - - - - - -
01/04:30am 27.0 SSW 12 14 1010.8 - - - - - - - - -
01/04:00am 27.4 SSW 13 15 1010.5 - - - - - - - - -
01/03:30am 27.5 S 9 11 1010.5 - - - - - - - - -
01/03:00am 28.3 SSW 7 9 1010.4 - - - - - - - - -
01/02:30am 28.5 SW 7 9 1010.4 - - - - - - - - -
01/02:00am 28.3 SW 7 8 1010.3 - - - - - - - - -
01/01:30am 28.4 WSW 7 8 1010.5 - - - - - - - - -
01/01:00am 28.2 SW 5 6 1010.5 - - - - - - - - -
01/12:30am 28.1 SSW 6 7 1010.6 - - - - - - - - -
01/12:00am 29.1 WSW 7 8 1010.6 - - - - - - - - -
 
Date/Time
WST
Temp

°C
Wind Pressure Rain
since 9am
mm
Weather Cloud Vis
km
Sea
Height
m
Swell
Dir
 
Speed
knots
Gust
knots
hPa Trend Height
m
Period
s
Dir
30/11:30pm 29.1 SW 8 10 1010.8 - - - - - - - - -
30/11:00pm 29.2 WSW 8 9 1010.9 - - - - - - - - -
30/10:30pm 29.2 WSW 7 8 1011.1 - - - - - - - - -
30/10:00pm 29.2 WSW 8 11 1011.2 - - - - - - - - -
30/09:30pm 29.3 WSW 10 11 1011.2 - - - - - - - - -
30/09:00pm 29.2 WSW 9 12 1011.2 - - - - - - - - -
30/08:30pm 29.3 W 10 12 1011.0 - - - - - - - - -
30/08:00pm 29.3 W 10 12 1010.8 - - - - - - - - -
30/07:30pm 29.3 W 9 12 1010.5 - - - - - - - - -
30/07:00pm 29.1 W 11 14 1010.2 - - - - - - - - -
30/06:30pm 29.1 W 13 15 1009.9 - - - - - - - - -
30/06:00pm 29.2 W 13 15 1009.7 - - - - - - - - -
30/05:30pm 29.3 W 13 16 1009.4 - - - - - - - - -
30/05:00pm 29.4 W 13 16 1009.0 - - - - - - - - -
30/04:30pm 29.4 WNW 13 15 1008.8 - - - - - - - - -
30/04:00pm 29.6 W 11 15 1008.8 - - - - - - - - -
30/03:30pm 29.6 W 13 17 1008.8 - - - - - - - - -
30/03:00pm 29.5 W 13 16 1008.8 - - - - - - - - -
30/02:30pm 29.4 WNW 13 15 1008.8 - - - - - - - - -
30/02:00pm 29.3 W 11 13 1009.1 - - - - - - - - -
30/01:30pm 29.2 W 10 12 1009.6 - - - - - - - - -
30/01:00pm 29.2 WNW 8 10 1009.9 - - - - - - - - -
30/12:30pm 28.8 WNW 9 11 1010.4 - - - - - - - - -
30/12:00pm 28.7 W 9 12 1010.8 - - - - - - - - -
30/11:30am 28.6 WSW 8 11 1011.3 - - - - - - - - -
30/11:00am 28.5 SW 7 9 1011.7 - - - - - - - - -
30/10:30am 28.4 SW 9 11 1012.1 - - - - - - - - -
30/10:00am 28.3 SSW 9 11 1012.2 - - - - - - - - -
30/09:30am 28.1 SSW 9 11 1012.4 - - - - - - - - -
30/09:00am 27.3 S 9 11 1012.4 - - - - - - - - -
30/08:30am 26.7 S 9 12 1012.4 - - - - - - - - -
30/08:00am 26.2 ESE 7 12 1012.2 - - - - - - - - -
30/07:30am 27.3 S 4 5 1011.8 - - - - - - - - -
30/07:00am 27.4 S 6 7 1011.6 - - - - - - - - -
30/06:30am 28.6 WSW 7 9 1011.4 - - - - - - - - -
30/06:00am 28.5 WSW 6 8 1011.1 - - - - - - - - -
30/05:30am 28.6 WSW 6 8 1010.9 - - - - - - - - -
30/05:00am 28.5 W 5 7 1010.6 - - - - - - - - -
30/04:30am 28.6 W 7 8 1010.4 - - - - - - - - -
30/04:00am 28.6 W 7 9 1010.4 - - - - - - - - -
30/03:30am 28.7 W 6 8 1010.2 - - - - - - - - -
30/03:00am 28.6 W 6 7 1010.1 - - - - - - - - -
30/02:30am 28.5 W 6 7 1010.1 - - - - - - - - -
30/02:00am 28.6 W 7 9 1010.0 - - - - - - - - -
30/01:30am 28.7 WSW 6 8 1010.2 - - - - - - - - -
30/01:00am 28.7 WSW 9 10 1010.2 - - - - - - - - -
30/12:30am 28.8 WSW 8 11 1010.5 - - - - - - - - -
30/12:00am 28.9 WSW 8 10 1010.6 - - - - - - - - -
 
Date/Time
WST
Temp

°C
Wind Pressure Rain
since 9am
mm
Weather Cloud Vis
km
Sea
Height
m
Swell
Dir
 
Speed
knots
Gust
knots
hPa Trend Height
m
Period
s
Dir
29/11:30pm 28.9 W 8 10 1010.8 - - - - - - - - -
29/11:00pm 28.9 W 9 10 1011.1 - - - - - - - - -
29/10:30pm 29.0 W 7 10 1011.3 - - - - - - - - -
29/10:00pm 28.9 W 7 10 1011.4 - - - - - - - - -
29/09:30pm 29.0 W 8 11 1011.6 - - - - - - - - -
29/09:00pm 29.0 W 8 11 1011.7 - - - - - - - - -
29/08:30pm 29.1 W 8 11 1011.5 - - - - - - - - -
29/08:00pm 29.2 W 9 13 1011.3 - - - - - - - - -
29/07:30pm 29.1 WSW 12 15 1011.2 - - - - - - - - -
29/07:00pm 29.2 WSW 12 15 1010.6 - - - - - - - - -
29/06:30pm 29.2 WSW 12 14 1010.3 - - - - - - - - -
29/06:00pm 29.4 W 10 14 1010.1 - - - - - - - - -
29/05:30pm 29.5 W 11 15 1010.0 - - - - - - - - -
29/05:00pm 29.6 W 12 15 1009.8 - - - - - - - - -
29/04:30pm 29.7 W 13 17 1009.6 - - - - - - - - -
29/04:00pm 29.8 W 13 15 1009.4 - - - - - - - - -
29/03:30pm 30.1 W 11 14 1009.3 - - - - - - - - -
29/03:00pm 30.1 W 11 14 1009.2 - - - - - - - - -
29/02:30pm 29.9 W 13 15 1009.1 - - - - - - - - -
29/02:00pm 30.1 W 12 15 1009.2 - - - - - - - - -
29/01:30pm 29.9 W 11 15 1009.4 - - - - - - - - -
29/01:00pm 30.0 W 11 14 1009.6 - - - - - - - - -
29/12:30pm 29.8 W 12 15 1009.7 - - - - - - - - -
29/12:00pm 30.0 W 11 13 1009.9 - - - - - - - - -
29/11:30am 29.8 W 11 13 1010.4 - - - - - - - - -
29/11:00am 30.0 W 9 11 1010.6 - - - - - - - - -
29/10:30am 30.0 W 9 12 1011.1 - - - - - - - - -
29/10:00am 30.0 W 9 12 1011.3 - - - - - - - - -
29/09:30am 29.8 WNW 8 11 1011.4 - - - - - - - - -
29/09:00am 29.9 WNW 9 11 1011.5 - - - - - - - - -
29/08:30am 29.9 W 8 11 1011.3 - - - - - - - - -
29/08:00am 29.7 WNW 8 10 1011.0 - - - - - - - - -
29/07:30am 29.5 WNW 7 9 1010.7 - - - - - - - - -
29/07:00am 29.2 WNW 6 8 1010.6 - - - - - - - - -
29/06:30am 29.1 WNW 7 9 1010.5 - - - - - - - - -
29/06:00am 29.1 WNW 6 8 1010.2 - - - - - - - - -
29/05:30am 29.1 WNW 8 10 1010.0 - - - - - - - - -
29/05:00am 29.1 WNW 7 9 1009.8 - - - - - - - - -
29/04:30am 29.1 WNW 6 8 1009.7 - - - - - - - - -
29/04:00am 29.2 WNW 7 9 1009.6 - - - - - - - - -
29/03:30am 29.2 NW 7 9 1009.4 - - - - - - - - -
29/03:00am 29.3 WNW 8 9 1009.3 - - - - - - - - -
29/02:30am 29.3 WNW 7 9 1009.3 - - - - - - - - -
29/02:00am 29.3 WNW 8 9 1009.3 - - - - - - - - -
29/01:30am 29.3 WNW 7 9 1009.4 - - - - - - - - -
29/01:00am 29.4 NW 8 10 1009.5 - - - - - - - - -
29/12:30am 29.4 NW 8 10 1009.7 - - - - - - - - -
29/12:00am 29.3 NW 8 10 1010.0 - - - - - - - - -

Other Formats:

Comma delimited format used in spreadsheet applications
http://www.bom.gov.au/fwo/IDW60701/IDW60701.95202.axf

JavaScript Object Notation format (JSON) in row-major order
http://www.bom.gov.au/fwo/IDW60701/IDW60701.95202.json